D/T METAR WX W/DIR W/SPE G/SPE TEMP DEWP
16/01/19 02:50 EGPM 160250Z AUTO 06017KT 1600 DZ OVC002/// 03/03 Q0984 RERA DZ ENE (60°) 19.6mph 3°C 3°C
16/01/19 02:20 EGPM 160220Z AUTO 08016KT 3300 RA OVC002/// 03/03 Q0984 RERA REDZ RA E (80°) 18.4mph 3°C 3°C
16/01/19 01:50 EGPM 160150Z AUTO 08014KT 3900 RA OVC002/// 03/03 Q0985 RA E (80°) 16.1mph 3°C 3°C
16/01/19 00:50 EGPM 160050Z AUTO 09013KT 4300 -DZ BKN003/// OVC017/// 02/02 Q0986 RERA -DZ E (90°) 15.0mph 2°C 2°C
16/01/19 00:20 EGPM 160020Z AUTO 09014KT 3800 RA SCT006/// BKN015/// OVC028/// 02/01 Q0987 RERA RA E (90°) 16.1mph 2°C 1°C
15/01/19 23:50 EGPM 152350Z AUTO 11016KT 2500 +RA FEW002/// OVC013/// 01/01 Q0988 +RA ESE (110°) 18.4mph 1°C 1°C
15/01/19 23:20 EGPM 152320Z AUTO 11015KT 2600 +RA BKN002/// BKN007/// OVC014/// 02/02 Q0989 +RA ESE (110°) 17.3mph 2°C 2°C
15/01/19 22:50 EGPM 152250Z AUTO 11015KT 4400 RA FEW003/// OVC016/// 02/02 Q0990 RA ESE (110°) 17.3mph 2°C 2°C
15/01/19 22:20 EGPM 152220Z AUTO 11011KT 6000 -RA OVC019/// 02/02 Q0991 -RA ESE (110°) 12.7mph 2°C 2°C
15/01/19 21:50 EGPM 152150Z AUTO 12011KT 5000 -RA FEW003/// OVC019/// 02/01 Q0992 -RA ESE (120°) 12.7mph 2°C 1°C
15/01/19 21:20 EGPM 152120Z AUTO 13008KT 7000 -RA FEW003/// OVC019/// 02/01 Q0993 -RA SE (130°) 9.2mph 2°C 1°C
15/01/19 20:50 EGPM 152050Z AUTO 14008KT 9000 -RA FEW006/// OVC019/// 03/02 Q0994 -RA SE (140°) 9.2mph 3°C 2°C
15/01/19 20:20 EGPM 152020Z AUTO 15007KT 9999 -RA FEW004/// SCT011/// OVC021/// 03/02 Q0994 -RA SSE (150°) 8.1mph 3°C 2°C
15/01/19 19:50 EGPM 151950Z AUTO 15005KT 9999 -RA SCT005/// BKN012/// OVC021/// 03/02 Q0995 -RA SSE (150°) 5.8mph 3°C 2°C
15/01/19 19:20 EGPM 151920Z AUTO 20004KT 180V240 9999 -RA SCT003/// OVC016/// 04/01 Q0995 -RA SSW (200°) 4.6mph 4°C 1°C
15/01/19 18:50 EGPM 151850Z AUTO 22007KT 7000 -RA FEW003/// BKN008/// OVC020/// 04/02 Q0996 -RA SW (220°) 8.1mph 4°C 2°C
15/01/19 18:20 EGPM 151820Z AUTO 23007KT 9999 -RA FEW003/// BKN008/// 05/02 Q0996 -RA SW (230°) 8.1mph 5°C 2°C
15/01/19 17:50 EGPM 151750Z AUTO 27009KT 230V330 9999 -RA SCT003/// BKN013/// BKN027/// 06/01 Q0996 -RA W (270°) 10.4mph 6°C 1°C
15/01/19 17:20 EGPM 151720Z AUTO 31008KT 250V340 9999 FEW003/// BKN024/// 05/02 Q0996 NW (310°) 9.2mph 5°C 2°C
15/01/19 16:50 EGPM 151650Z 26004KT 9999 FEW018 06/03 Q0996 NOSIG W (260°) 4.6mph 6°C 3°C
15/01/19 16:20 EGPM 151620Z 26006KT 9999 FEW018 06/03 Q0997 NOSIG W (260°) 6.9mph 6°C 3°C
15/01/19 15:50 EGPM 151550Z 27009KT 9999 FEW018 06/03 Q0997 NOSIG W (270°) 10.4mph 6°C 3°C
15/01/19 15:20 EGPM 151520Z 27010KT 9999 FEW018 07/03 Q0997 NOSIG W (270°) 11.5mph 7°C 3°C
15/01/19 14:20 EGPM 151420Z 27013KT 9999 FEW018 07/03 Q0998 NOSIG W (270°) 15.0mph 7°C 3°C
15/01/19 13:50 EGPM 151350Z 27017KT 9999 FEW018 06/02 Q0998 NOSIG W (270°) 19.6mph 6°C 2°C
15/01/19 13:20 EGPM 151320Z 27015KT 9999 FEW022 07/03 Q0998 NOSIG W (270°) 17.3mph 7°C 3°C
15/01/19 12:20 EGPM 151220Z 28013KT 9999 VCSH FEW022 06/03 Q0998 NOSIG VCSH W (280°) 15.0mph 6°C 3°C
15/01/19 11:50 EGPM 151150Z 27015KT 9999 VCSH FEW026 07/03 Q0998 NOSIG VCSH W (270°) 17.3mph 7°C 3°C
15/01/19 11:20 EGPM 151120Z 28018KT 9999 VCSH FEW026 06/02 Q0998 NOSIG VCSH W (280°) 20.7mph 6°C 2°C
15/01/19 10:50 EGPM 151050Z 28017KT 9999 VCSH FEW026 07/02 Q0998 NOSIG VCSH W (280°) 19.6mph 7°C 2°C
15/01/19 10:20 EGPM 151020Z 28016KT 9999 VCSH FEW026 07/03 Q0998 NOSIG VCSH W (280°) 18.4mph 7°C 3°C
15/01/19 09:50 EGPM 150950Z 27021KT 9999 VCSH FEW024 06/02 Q0998 NOSIG VCSH W (270°) 24.2mph 6°C 2°C
15/01/19 09:20 EGPM 150920Z 28017KT 9999 VCSH FEW024 07/03 Q0998 VCSH W (280°) 19.6mph 7°C 3°C
15/01/19 08:50 EGPM 150850Z 28023KT 9999 VCSH FEW024 07/02 Q0998 NOSIG VCSH W (280°) 26.5mph 7°C 2°C
15/01/19 08:20 EGPM 150820Z 28022KT 9999 VCSH FEW024 07/03 Q0997 NOSIG VCSH W (280°) 25.3mph 7°C 3°C
15/01/19 07:50 EGPM 150750Z 29015KT 260V320 9999 VCSH FEW024CB 06/02 Q0997 NOSIG VCSH WNW (290°) 17.3mph 6°C 2°C
15/01/19 07:20 EGPM 150720Z 28022KT 9999 FEW024 SCT036 07/03 Q0997 NOSIG W (280°) 25.3mph 7°C 3°C
15/01/19 06:50 EGPM 150650Z 27021KT 9999 SCT024 07/03 Q0997 W (270°) 24.2mph 7°C 3°C
15/01/19 06:20 EGPM 150620Z 28021G31KT 9999 SCT024 07/02 Q0997 W (280°) 24.2mph 35.7mph 7°C 2°C
15/01/19 05:50 EGPM 150550Z 28021G33KT 9999 SCT024 07/03 Q0997 W (280°) 24.2mph 38.0mph 7°C 3°C
15/01/19 05:20 EGPM 150520Z AUTO 28023G36KT 9999 SCT019/// BKN044/// 07/03 Q0996 W (280°) 26.5mph 41.4mph 7°C 3°C
15/01/19 04:50 EGPM 150450Z AUTO 28023G35KT 9999 SCT026/// BKN047/// 07/04 Q0996 W (280°) 26.5mph 40.3mph 7°C 4°C
15/01/19 04:20 EGPM 150420Z AUTO 27027G38KT 9999 FEW012/// SCT018/// BKN048/// 08/03 Q0996 W (270°) 31.1mph 43.7mph 8°C 3°C
15/01/19 03:50 EGPM 150350Z AUTO 28023G33KT 9999 BKN022/// BKN043/// 07/04 Q0996 W (280°) 26.5mph 38.0mph 7°C 4°C
15/01/19 03:20 EGPM 150320Z AUTO 27023KT 9999 FEW024/// SCT048/// 08/05 Q0996 W (270°) 26.5mph 8°C 5°C
15/01/19 02:50 EGPM 150250Z AUTO 28024G35KT 9999 SCT015/// BKN033/// 08/05 Q0996 W (280°) 27.6mph 40.3mph 8°C 5°C
15/01/19 02:20 EGPM 150220Z AUTO 28028G38KT 9999 SCT001/// OVC010/// 08/06 Q0996 RERA REDZ W (280°) 32.2mph 43.7mph 8°C 6°C
15/01/19 01:50 EGPM 150150Z AUTO 25025KT 6000 -RA BKN002/// OVC021/// 09/08 Q0995 REDZ -RA WSW (250°) 28.8mph 9°C 8°C
15/01/19 01:20 EGPM 150120Z AUTO 18022KT 5000 -DZ FEW004/// BKN008/// OVC021/// 06/05 Q0996 -DZ S (180°) 25.3mph 6°C 5°C
15/01/19 00:50 EGPM 150050Z AUTO 16024KT 7000 -RA FEW004/// BKN013/// OVC025/// 03/02 Q0997 -RA SSE (160°) 27.6mph 3°C 2°C
15/01/19 00:20 EGPM 150020Z AUTO 16025KT 9999 BKN004/// OVC016/// 03/02 Q0998 SSE (160°) 28.8mph 3°C 2°C
14/01/19 23:50 EGPM 142350Z AUTO 16021KT 9999 FEW005/// BKN017/// 02/01 Q0999 SSE (160°) 24.2mph 2°C 1°C
14/01/19 23:20 EGPM 142320Z AUTO 15017KT 6000 -RA FEW004/// OVC019/// 01/01 Q1001 -RA SSE (150°) 19.6mph 1°C 1°C
14/01/19 22:50 EGPM 142250Z AUTO 15014KT 6000 -RA BKN008/// OVC029/// 01/00 Q1002 RERA -RA SSE (150°) 16.1mph 1°C 0°C
14/01/19 22:20 EGPM 142220Z AUTO 15014KT 4600 RA OVC010/// 01/00 Q1003 RA SSE (150°) 16.1mph 1°C 0°C
14/01/19 21:50 EGPM 142150Z AUTO 14010KT 8000 -RA FEW007/// OVC014/// 01/00 Q1004 -RA SE (140°) 11.5mph 1°C 0°C
14/01/19 21:20 EGPM 142120Z AUTO 14011KT 9999 -RA FEW004/// 01/M00 Q1005 -RA SE (140°) 12.7mph 1°C 0°C
14/01/19 20:50 EGPM 142050Z AUTO 12004KT 090V160 9999 BKN030/// BKN045/// 01/M00 Q1006 ESE (120°) 4.6mph 1°C 0°C
14/01/19 20:20 EGPM 142020Z AUTO 12005KT 9999 NCD 00/M01 Q1007 ESE (120°) 5.8mph 0°C -1°C
14/01/19 19:50 EGPM 141950Z AUTO VRB03KT 9999 NCD 00/M01 Q1007 N (0°) 3.5mph 0°C -1°C
14/01/19 18:50 EGPM 141850Z 10003KT 9999 FEW018 00/M01 Q1008 E (100°) 3.5mph 0°C -1°C
14/01/19 18:20 EGPM 141820Z 05006KT 9999 FEW018 01/M00 Q1008 NE (50°) 6.9mph 1°C 0°C
14/01/19 17:20 EGPM 141720Z 06007KT 050V120 9999 FEW010 BKN022 01/00 Q1008 NOSIG ENE (60°) 8.1mph 1°C 0°C
14/01/19 16:50 EGPM 141650Z 07009KT 9999 FEW010 BKN017 01/00 Q1008 ENE (70°) 10.4mph 1°C 0°C
14/01/19 16:20 EGPM 141620Z 04009KT 9999 FEW010 BKN014 01/00 Q1008 TEMPO SCT014 NE (40°) 10.4mph 1°C 0°C
14/01/19 15:50 EGPM 141550Z 07007KT 7000 VCSH FEW006 BKN012 01/01 Q1008 TEMPO SCT012 VCSH ENE (70°) 8.1mph 1°C 1°C
14/01/19 15:20 EGPM 141520Z 07005KT 6000 VCSH FEW008 BKN016 00/00 Q1008 NOSIG VCSH ENE (70°) 5.8mph 0°C 0°C
14/01/19 14:50 EGPM 141450Z 06006KT 020V100 3000 -SHSN FEW008 BKN016 01/00 Q1008 TEMPO 8000 -SHSN ENE (60°) 6.9mph 1°C 0°C
14/01/19 14:20 EGPM 141420Z 15006KT 050V220 7000 VCSH FEW008 BKN016 00/00 Q1008 NOSIG VCSH SSE (150°) 6.9mph 0°C 0°C
14/01/19 13:50 EGPM 141350Z 12007KT 080V180 4000 -SHSN FEW008 BKN016 00/M00 Q1008 TEMPO 9000 -SHSN ESE (120°) 8.1mph 0°C 0°C
14/01/19 13:20 EGPM 141320Z 13006KT 5000 VCSH FEW008 BKN016 00/M00 Q1009 VCSH SE (130°) 6.9mph 0°C 0°C
14/01/19 12:50 EGPM 141250Z 13003KT 4000 -SHSN FEW008 BKN016 01/M00 Q1010 TEMPO 2000 SHSN -SHSN SE (130°) 3.5mph 1°C 0°C
14/01/19 12:20 EGPM 141220Z VRB03KT 3500 -SHSN FEW008 BKN016 00/M00 Q1010 TEMPO 2000 SHSN -SHSN N (0°) 3.5mph 0°C 0°C
14/01/19 11:50 EGPM 141150Z 13003KT 6000 -SHSN FEW010 BKN020 00/M00 Q1011 TEMPO 4000 SHSN -SHSN SE (130°) 3.5mph 0°C 0°C
14/01/19 11:20 EGPM 141120Z VRB01KT 9999 -SHSN FEW010 BKN045 01/M00 Q1011 NOSIG -SHSN N (0°) 1.2mph 1°C 0°C
14/01/19 10:50 EGPM 141050Z 18002KT 9999 VCSH FEW011 BKN045 00/M01 Q1011 NOSIG VCSH S (180°) 2.3mph 0°C -1°C
14/01/19 10:20 EGPM 141020Z 33004KT 300V010 9999 -SHSN FEW008 SCT020 BKN045 00/M01 Q1012 NOSIG -SHSN NNW (330°) 4.6mph 0°C -1°C
14/01/19 09:20 EGPM 140920Z 30009KT 2000 -SHSN FEW013 BKN018 00/M01 Q1012 BECMG 9999 -SHSN WNW (300°) 10.4mph 0°C -1°C
14/01/19 08:50 EGPM 140850Z 29010KT 7000 -SHSN FEW018 BKN027 00/M02 Q1012 NOSIG -SHSN WNW (290°) 11.5mph 0°C -2°C
14/01/19 08:20 EGPM 140820Z 32012KT 9999 -SHSN FEW018 BKN032 01/M03 Q1012 NOSIG -SHSN NW (320°) 13.8mph 1°C -3°C
14/01/19 07:50 EGPM 140750Z 32014KT 9999 SCT030 01/M03 Q1011 TEMPO 4000 -SHRASN NW (320°) 16.1mph 1°C -3°C
14/01/19 07:20 EGPM 140720Z 32015KT 9999 SCT030 01/M04 Q1011 NOSIG NW (320°) 17.3mph 1°C -4°C
14/01/19 06:50 EGPM 140650Z 33021KT 9999 SCT023 02/M04 Q1011 NOSIG NNW (330°) 24.2mph 2°C -4°C
14/01/19 06:20 EGPM 140620Z 32020KT 9999 SCT023 01/M03 Q1011 NOSIG NW (320°) 23.0mph 1°C -3°C
14/01/19 05:50 EGPM 140550Z 32020KT 9999 SCT023 01/M05 Q1011 NOSIG NW (320°) 23.0mph 1°C -5°C
14/01/19 05:20 EGPM 140520Z AUTO 31021G31KT 9999 BKN041/// 01/M06 Q1011 NW (310°) 24.2mph 35.7mph 1°C -6°C
14/01/19 04:50 EGPM 140450Z AUTO 32020KT 9999 BKN039/// 01/M05 Q1010 NW (320°) 23.0mph 1°C -5°C
14/01/19 04:20 EGPM 140420Z AUTO 31020G31KT 9999 BKN042/// 01/M05 Q1010 NW (310°) 23.0mph 35.7mph 1°C -5°C
14/01/19 03:50 EGPM 140350Z AUTO 32023KT 9999 FEW013/// BKN032/// OVC046/// 01/M04 Q1010 NW (320°) 26.5mph 1°C -4°C
14/01/19 03:20 EGPM 140320Z AUTO 32023G35KT 9999 BKN038/// 01/M06 Q1010 NW (320°) 26.5mph 40.3mph 1°C -6°C
14/01/19 02:50 EGPM 140250Z AUTO 32024G37KT 9999 -RA FEW003/// BKN034/// OVC048/// 01/M05 Q1010 -RA NW (320°) 27.6mph 42.6mph 1°C -5°C
14/01/19 02:20 EGPM 140220Z AUTO 32022G33KT 9999 FEW002/// SCT018/// BKN033/// 01/M06 Q1009 NW (320°) 25.3mph 38.0mph 1°C -6°C
14/01/19 01:50 EGPM 140150Z AUTO 32024G34KT 9999 -RA FEW025/// BKN036/// 01/M04 Q1009 REFZRA -RA NW (320°) 27.6mph 39.1mph 1°C -4°C
14/01/19 01:20 EGPM 140120Z AUTO 33023KT 9999 -SN SCT001/// BKN033/// OVC040/// M00/M03 Q1009 RERA REFZRA -SN FZRA NNW (330°) 26.5mph 0°C -3°C
14/01/19 00:50 EGPM 140050Z AUTO 32024G38KT 9999 FEW001/// BKN036/// 01/M05 Q1009 REFZRA NW (320°) 27.6mph 43.7mph 1°C -5°C
14/01/19 00:20 EGPM 140020Z AUTO 32025KT 9999 FEW001/// SCT039/// 01/M03 Q1008 NW (320°) 28.8mph 1°C -3°C
13/01/19 23:50 EGPM 132350Z AUTO 32024KT 0750 SHGR SCT001/// BKN006/// M01/M02 Q1008 REFZRA SHGR NW (320°) 27.6mph -1°C -2°C
13/01/19 23:20 EGPM 132320Z AUTO 31025G36KT 9999 FEW001/// SCT018/// BKN029/// M00/M03 Q1008 REFZRA NW (310°) 28.8mph 41.4mph 0°C -3°C
13/01/19 22:50 EGPM 132250Z AUTO 32023KT 9999 FEW008/// SCT026/// BKN049/// 00/M03 Q1008 NW (320°) 26.5mph 0°C -3°C
13/01/19 22:20 EGPM 132220Z AUTO 33025G37KT 9999 -RA SCT001/// SCT011/// BKN017/// 00/M03 Q1007 REFZRA -RA NNW (330°) 28.8mph 42.6mph 0°C -3°C
13/01/19 21:50 EGPM 132150Z AUTO 33022KT 9999 FZRA FEW001/// SCT011/// M00/M02 Q1007 FZRA NNW (330°) 25.3mph 0°C -2°C
13/01/19 21:20 EGPM 132120Z AUTO 33025G38KT 3700 HZ FEW001/// SCT011/// BKN031/// M00/M02 Q1007 HZ NNW (330°) 28.8mph 43.7mph 0°C -2°C
13/01/19 20:50 EGPM 132050Z AUTO 34025G35KT 8000 -SN FEW002/// SCT009/// BKN015/// 00/M02 Q1006 -SN NNW (340°) 28.8mph 40.3mph 0°C -2°C
13/01/19 20:20 EGPM 132020Z AUTO 33021G31KT 9999 -RA SCT001/// SCT009/// BKN020/// 01/M03 Q1006 -RA NNW (330°) 24.2mph 35.7mph 1°C -3°C
13/01/19 19:50 EGPM 131950Z AUTO 32019KT 9999 FEW002/// SCT020/// BKN029/// 01/M03 Q1006 NW (320°) 21.9mph 1°C -3°C
13/01/19 19:20 EGPM 131920Z AUTO 34022KT 9999 BKN034/// OVC049/// 02/M04 Q1005 NNW (340°) 25.3mph 2°C -4°C
13/01/19 18:50 EGPM 131850Z AUTO 35022KT 9999 OVC037/// 02/M04 Q1005 N (350°) 25.3mph 2°C -4°C
13/01/19 18:20 EGPM 131820Z AUTO 35022KT 9999 -RA BKN031/// OVC046/// 02/M04 Q1004 -RA N (350°) 25.3mph 2°C -4°C
13/01/19 17:50 EGPM 131750Z AUTO 35022G32KT 9999 FEW031/// BKN038/// 02/M04 Q1004 N (350°) 25.3mph 36.8mph 2°C -4°C
13/01/19 17:20 EGPM 131720Z AUTO 35023KT 9999 FEW006/// SCT027/// BKN043/// 02/M04 Q1003 N (350°) 26.5mph 2°C -4°C
13/01/19 16:50 EGPM 131650Z AUTO 35023KT 9999 FEW020/// BKN032/// BKN048/// 02/M03 Q1002 N (350°) 26.5mph 2°C -3°C
13/01/19 16:20 EGPM 131620Z AUTO 36021G32KT 9999 FEW011/// SCT032/// BKN045/// 02/M04 Q1001 N (360°) 24.2mph 36.8mph 2°C -4°C
13/01/19 15:50 EGPM 131550Z AUTO 36019G29KT 9999 FEW011/// BKN036/// 02/M03 Q1001 N (360°) 21.9mph 33.4mph 2°C -3°C
13/01/19 15:20 EGPM 131520Z AUTO 01019KT 9999 BKN034/// 02/M04 Q1000 N (10°) 21.9mph 2°C -4°C
13/01/19 14:50 EGPM 131450Z AUTO 01018KT 9999 FEW010/// OVC028/// 03/M02 Q0999 N (10°) 20.7mph 3°C -2°C
13/01/19 14:20 EGPM 131420Z AUTO 02017KT 9999 BKN028/// 03/M02 Q0999 NNE (20°) 19.6mph 3°C -2°C
13/01/19 13:50 EGPM 131350Z AUTO 04017KT 9999 FEW028/// BKN033/// 03/M00 Q0998 NE (40°) 19.6mph 3°C 0°C
13/01/19 13:20 EGPM 131320Z AUTO 03018KT 9999 BKN040/// 03/M02 Q0997 NNE (30°) 20.7mph 3°C -2°C
13/01/19 12:50 EGPM 131250Z AUTO 03017KT 9999 BKN036/// 04/M00 Q0997 NNE (30°) 19.6mph 4°C 0°C
13/01/19 12:20 EGPM 131220Z AUTO 03018KT 9999 SCT037/// 04/00 Q0996 NNE (30°) 20.7mph 4°C 0°C
13/01/19 11:50 EGPM 131150Z AUTO 04017KT 9999 SCT044/// 04/00 Q0996 NE (40°) 19.6mph 4°C 0°C
13/01/19 11:20 EGPM 131120Z AUTO 04013KT 9999 FEW020/// 04/02 Q0995 NE (40°) 15.0mph 4°C 2°C
13/01/19 10:50 EGPM 131050Z AUTO 03018KT 9999 FEW009/// SCT021/// 05/02 Q0995 NNE (30°) 20.7mph 5°C 2°C
13/01/19 10:20 EGPM 131020Z AUTO 04016KT 9999 FEW006/// SCT017/// BKN044/// 04/02 Q0994 NE (40°) 18.4mph 4°C 2°C
13/01/19 09:50 EGPM 130950Z AUTO 03015G25KT 9999 -RA FEW007/// BKN014/// BKN028/// 05/03 Q0993 -RA NNE (30°) 17.3mph 28.8mph 5°C 3°C
13/01/19 09:20 EGPM 130920Z AUTO 03016G26KT 9999 -RA BKN010/// OVC023/// 05/03 Q0993 -RA NNE (30°) 18.4mph 29.9mph 5°C 3°C
13/01/19 08:50 EGPM 130850Z AUTO 36017KT 9999 -RA SCT008/// BKN021/// BKN045/// 05/04 Q0992 RERA -RA N (360°) 19.6mph 5°C 4°C
13/01/19 08:20 EGPM 130820Z AUTO 34014KT 4800 RA FEW002/// BKN013/// BKN036/// 06/04 Q0991 RA NNW (340°) 16.1mph 6°C 4°C
13/01/19 07:50 EGPM 130750Z AUTO 34014KT 9999 BKN009/// BKN020/// OVC036/// 06/05 Q0990 NNW (340°) 16.1mph 6°C 5°C
13/01/19 06:50 EGPM 130650Z AUTO 33015KT 9999 FEW006/// BKN015/// BKN030/// 07/05 Q0989 NNW (330°) 17.3mph 7°C 5°C
13/01/19 06:20 EGPM 130620Z AUTO 28021G31KT 9999 BKN016/// 08/05 Q0989 W (280°) 24.2mph 35.7mph 8°C 5°C
13/01/19 05:50 EGPM 130550Z AUTO 28020G32KT 9999 BKN015/// 08/06 Q0989 W (280°) 23.0mph 36.8mph 8°C 6°C
13/01/19 05:20 EGPM 130520Z AUTO 28021KT 9999 BKN017/// 08/06 Q0989 W (280°) 24.2mph 8°C 6°C
13/01/19 04:50 EGPM 130450Z AUTO 28024KT 9999 SCT012/// BKN022/// 08/06 Q0989 W (280°) 27.6mph 8°C 6°C
13/01/19 04:20 EGPM 130420Z AUTO 28024G35KT 9999 SCT002/// BKN011/// BKN041/// 08/06 Q0990 RERA W (280°) 27.6mph 40.3mph 8°C 6°C
13/01/19 03:50 EGPM 130350Z AUTO 28022G32KT 9999 FEW003/// BKN012/// 09/07 Q0990 W (280°) 25.3mph 36.8mph 9°C 7°C
13/01/19 03:20 EGPM 130320Z AUTO 27024G35KT 9999 BKN012/// 09/07 Q0990 W (270°) 27.6mph 40.3mph 9°C 7°C
13/01/19 02:50 EGPM 130250Z AUTO 28022KT 9999 BKN013/// 09/07 Q0991 W (280°) 25.3mph 9°C 7°C
13/01/19 02:20 EGPM 130220Z AUTO 28025KT 9999 BKN008/// 09/07 Q0991 RERA W (280°) 28.8mph 9°C 7°C
13/01/19 01:50 EGPM 130150Z AUTO 27023G33KT 9999 -RA FEW002/// BKN006/// OVC030/// 09/08 Q0992 RERA -RA W (270°) 26.5mph 38.0mph 9°C 8°C
13/01/19 01:20 EGPM 130120Z AUTO 28023KT 6000 -RA OVC003/// 09/08 Q0992 REDZ -RA W (280°) 26.5mph 9°C 8°C
13/01/19 00:50 EGPM 130050Z AUTO 28022KT 9999 FEW002/// BKN008/// 09/08 Q0993 W (280°) 25.3mph 9°C 8°C
13/01/19 00:20 EGPM 130020Z AUTO 27021KT 9999 FEW003/// BKN008/// OVC045/// 09/08 Q0993 RERA W (270°) 24.2mph 9°C 8°C
12/01/19 23:50 EGPM 122350Z AUTO 27023G34KT 9999 BKN003/// OVC012/// 09/08 Q0993 REDZ W (270°) 26.5mph 39.1mph 9°C 8°C